sensor_id;sensor_type;location;lat;lon;timestamp;P1;durP1;ratioP1;P2;durP2;ratioP2
8293;SDS011;4185;41.506;24.938;2022-08-19T00:02:10;10.50;;;7.93;;
8293;SDS011;4185;41.506;24.938;2022-08-19T00:04:37;10.03;;;7.83;;
8293;SDS011;4185;41.506;24.938;2022-08-19T00:07:06;8.10;;;7.30;;
8293;SDS011;4185;41.506;24.938;2022-08-19T00:09:33;8.73;;;7.90;;
8293;SDS011;4185;41.506;24.938;2022-08-19T00:12:00;9.37;;;8.43;;
8293;SDS011;4185;41.506;24.938;2022-08-19T00:14:28;8.50;;;7.70;;
8293;SDS011;4185;41.506;24.938;2022-08-19T00:16:56;11.57;;;8.80;;
8293;SDS011;4185;41.506;24.938;2022-08-19T00:19:23;8.97;;;8.00;;
8293;SDS011;4185;41.506;24.938;2022-08-19T00:21:51;10.10;;;8.20;;
8293;SDS011;4185;41.506;24.938;2022-08-19T00:24:20;9.30;;;8.27;;
8293;SDS011;4185;41.506;24.938;2022-08-19T00:26:47;10.03;;;8.77;;
8293;SDS011;4185;41.506;24.938;2022-08-19T00:29:16;10.90;;;8.27;;
8293;SDS011;4185;41.506;24.938;2022-08-19T00:31:44;11.10;;;8.20;;
8293;SDS011;4185;41.506;24.938;2022-08-19T00:34:12;12.23;;;8.20;;
8293;SDS011;4185;41.506;24.938;2022-08-19T00:36:40;9.00;;;8.10;;
8293;SDS011;4185;41.506;24.938;2022-08-19T00:39:07;10.80;;;8.07;;
8293;SDS011;4185;41.506;24.938;2022-08-19T00:41:35;10.60;;;8.57;;
8293;SDS011;4185;41.506;24.938;2022-08-19T00:44:03;8.97;;;7.77;;
8293;SDS011;4185;41.506;24.938;2022-08-19T00:46:32;9.07;;;8.13;;
8293;SDS011;4185;41.506;24.938;2022-08-19T00:49:02;9.80;;;8.17;;
8293;SDS011;4185;41.506;24.938;2022-08-19T00:51:34;9.03;;;8.13;;
8293;SDS011;4185;41.506;24.938;2022-08-19T00:54:01;9.63;;;8.17;;
8293;SDS011;4185;41.506;24.938;2022-08-19T00:56:28;10.50;;;8.27;;
8293;SDS011;4185;41.506;24.938;2022-08-19T00:58:58;9.57;;;8.03;;
8293;SDS011;4185;41.506;24.938;2022-08-19T01:01:26;9.23;;;8.27;;
8293;SDS011;4185;41.506;24.938;2022-08-19T01:03:53;12.10;;;9.13;;
8293;SDS011;4185;41.506;24.938;2022-08-19T01:06:20;9.27;;;8.27;;
8293;SDS011;4185;41.506;24.938;2022-08-19T01:08:48;9.13;;;8.17;;
8293;SDS011;4185;41.506;24.938;2022-08-19T01:11:14;9.60;;;8.37;;
8293;SDS011;4185;41.506;24.938;2022-08-19T01:13:41;9.23;;;7.90;;
8293;SDS011;4185;41.506;24.938;2022-08-19T01:16:10;11.10;;;8.67;;
8293;SDS011;4185;41.506;24.938;2022-08-19T01:18:39;12.23;;;8.43;;
8293;SDS011;4185;41.506;24.938;2022-08-19T01:21:09;10.20;;;8.57;;
8293;SDS011;4185;41.506;24.938;2022-08-19T01:23:46;9.63;;;8.57;;
8293;SDS011;4185;41.506;24.938;2022-08-19T01:26:14;10.33;;;8.73;;
8293;SDS011;4185;41.506;24.938;2022-08-19T01:28:44;9.73;;;8.70;;
8293;SDS011;4185;41.506;24.938;2022-08-19T01:31:14;11.57;;;8.17;;
8293;SDS011;4185;41.506;24.938;2022-08-19T01:33:43;9.60;;;8.57;;
8293;SDS011;4185;41.506;24.938;2022-08-19T01:36:13;11.60;;;8.20;;
8293;SDS011;4185;41.506;24.938;2022-08-19T01:38:42;10.23;;;8.47;;
8293;SDS011;4185;41.506;24.938;2022-08-19T01:41:12;9.57;;;8.47;;
8293;SDS011;4185;41.506;24.938;2022-08-19T01:43:39;9.97;;;8.67;;
8293;SDS011;4185;41.506;24.938;2022-08-19T01:46:06;10.23;;;8.40;;
8293;SDS011;4185;41.506;24.938;2022-08-19T01:48:34;10.17;;;7.90;;
8293;SDS011;4185;41.506;24.938;2022-08-19T01:51:01;9.27;;;8.37;;
8293;SDS011;4185;41.506;24.938;2022-08-19T01:53:29;9.77;;;8.73;;
8293;SDS011;4185;41.506;24.938;2022-08-19T01:55:56;9.20;;;8.17;;
8293;SDS011;4185;41.506;24.938;2022-08-19T01:58:26;11.60;;;8.77;;
8293;SDS011;4185;41.506;24.938;2022-08-19T02:00:58;10.23;;;8.60;;
8293;SDS011;4185;41.506;24.938;2022-08-19T02:03:25;12.33;;;8.67;;
8293;SDS011;4185;41.506;24.938;2022-08-19T02:05:55;9.87;;;8.87;;
8293;SDS011;4185;41.506;24.938;2022-08-19T02:08:24;9.57;;;8.40;;
8293;SDS011;4185;41.506;24.938;2022-08-19T02:10:52;10.03;;;8.57;;
8293;SDS011;4185;41.506;24.938;2022-08-19T02:13:18;9.33;;;8.33;;
8293;SDS011;4185;41.506;24.938;2022-08-19T02:15:47;9.97;;;8.83;;
8293;SDS011;4185;41.506;24.938;2022-08-19T02:18:14;12.10;;;8.50;;
8293;SDS011;4185;41.506;24.938;2022-08-19T02:20:41;10.97;;;8.70;;
8293;SDS011;4185;41.506;24.938;2022-08-19T02:23:09;8.90;;;8.00;;
8293;SDS011;4185;41.506;24.938;2022-08-19T02:25:37;10.10;;;8.97;;
8293;SDS011;4185;41.506;24.938;2022-08-19T02:28:04;8.97;;;8.07;;
8293;SDS011;4185;41.506;24.938;2022-08-19T02:30:31;10.33;;;9.07;;
8293;SDS011;4185;41.506;24.938;2022-08-19T02:33:00;9.70;;;8.70;;
8293;SDS011;4185;41.506;24.938;2022-08-19T02:35:27;9.03;;;8.13;;
8293;SDS011;4185;41.506;24.938;2022-08-19T02:37:54;13.20;;;8.60;;
8293;SDS011;4185;41.506;24.938;2022-08-19T02:40:38;9.97;;;8.87;;
8293;SDS011;4185;41.506;24.938;2022-08-19T02:43:06;10.23;;;9.20;;
8293;SDS011;4185;41.506;24.938;2022-08-19T02:45:34;9.53;;;8.40;;
8293;SDS011;4185;41.506;24.938;2022-08-19T02:48:04;9.87;;;8.27;;
8293;SDS011;4185;41.506;24.938;2022-08-19T02:50:31;10.23;;;8.43;;
8293;SDS011;4185;41.506;24.938;2022-08-19T02:52:58;9.33;;;8.33;;
8293;SDS011;4185;41.506;24.938;2022-08-19T02:55:25;12.63;;;8.23;;
8293;SDS011;4185;41.506;24.938;2022-08-19T02:57:52;12.43;;;8.70;;
8293;SDS011;4185;41.506;24.938;2022-08-19T03:00:19;11.50;;;9.13;;
8293;SDS011;4185;41.506;24.938;2022-08-19T03:02:46;9.03;;;8.13;;
8293;SDS011;4185;41.506;24.938;2022-08-19T03:05:15;9.57;;;8.30;;
8293;SDS011;4185;41.506;24.938;2022-08-19T03:07:42;9.87;;;8.87;;
8293;SDS011;4185;41.506;24.938;2022-08-19T03:10:09;9.33;;;8.10;;
8293;SDS011;4185;41.506;24.938;2022-08-19T03:12:36;9.50;;;7.63;;
8293;SDS011;4185;41.506;24.938;2022-08-19T03:15:05;11.97;;;7.73;;
8293;SDS011;4185;41.506;24.938;2022-08-19T03:17:33;9.37;;;8.10;;
8293;SDS011;4185;41.506;24.938;2022-08-19T03:20:00;9.73;;;8.73;;
8293;SDS011;4185;41.506;24.938;2022-08-19T03:22:28;9.00;;;8.10;;
8293;SDS011;4185;41.506;24.938;2022-08-19T03:24:55;9.37;;;8.07;;
8293;SDS011;4185;41.506;24.938;2022-08-19T03:27:22;9.57;;;8.57;;
8293;SDS011;4185;41.506;24.938;2022-08-19T03:29:49;9.87;;;8.80;;
8293;SDS011;4185;41.506;24.938;2022-08-19T03:32:16;10.53;;;9.00;;
8293;SDS011;4185;41.506;24.938;2022-08-19T03:34:43;10.73;;;8.57;;
8293;SDS011;4185;41.506;24.938;2022-08-19T03:37:10;10.03;;;8.83;;
8293;SDS011;4185;41.506;24.938;2022-08-19T03:39:40;9.10;;;8.17;;
8293;SDS011;4185;41.506;24.938;2022-08-19T03:42:08;12.17;;;8.63;;
8293;SDS011;4185;41.506;24.938;2022-08-19T03:44:35;10.97;;;8.70;;
8293;SDS011;4185;41.506;24.938;2022-08-19T03:47:03;11.57;;;8.90;;
8293;SDS011;4185;41.506;24.938;2022-08-19T03:49:32;10.30;;;8.97;;
8293;SDS011;4185;41.506;24.938;2022-08-19T03:52:00;10.00;;;9.00;;
8293;SDS011;4185;41.506;24.938;2022-08-19T03:54:27;10.93;;;9.33;;
8293;SDS011;4185;41.506;24.938;2022-08-19T03:56:56;11.23;;;9.20;;
8293;SDS011;4185;41.506;24.938;2022-08-19T03:59:25;10.07;;;9.03;;
8293;SDS011;4185;41.506;24.938;2022-08-19T04:01:53;10.30;;;9.03;;
8293;SDS011;4185;41.506;24.938;2022-08-19T04:04:21;14.97;;;9.60;;
8293;SDS011;4185;41.506;24.938;2022-08-19T04:06:48;10.60;;;9.27;;
8293;SDS011;4185;41.506;24.938;2022-08-19T04:09:16;10.93;;;9.83;;
8293;SDS011;4185;41.506;24.938;2022-08-19T04:11:45;13.07;;;9.40;;
8293;SDS011;4185;41.506;24.938;2022-08-19T04:14:15;13.30;;;9.27;;
8293;SDS011;4185;41.506;24.938;2022-08-19T04:16:44;11.40;;;9.47;;
8293;SDS011;4185;41.506;24.938;2022-08-19T04:19:12;11.57;;;9.00;;
8293;SDS011;4185;41.506;24.938;2022-08-19T04:21:40;9.90;;;8.77;;
8293;SDS011;4185;41.506;24.938;2022-08-19T04:24:09;10.47;;;9.10;;
8293;SDS011;4185;41.506;24.938;2022-08-19T04:26:36;12.07;;;8.93;;
8293;SDS011;4185;41.506;24.938;2022-08-19T04:29:05;10.40;;;9.13;;
8293;SDS011;4185;41.506;24.938;2022-08-19T04:31:34;9.57;;;8.33;;
8293;SDS011;4185;41.506;24.938;2022-08-19T04:34:02;10.90;;;9.80;;
8293;SDS011;4185;41.506;24.938;2022-08-19T04:36:32;11.03;;;8.97;;
8293;SDS011;4185;41.506;24.938;2022-08-19T04:39:01;10.63;;;8.50;;
8293;SDS011;4185;41.506;24.938;2022-08-19T04:41:30;11.63;;;9.50;;
8293;SDS011;4185;41.506;24.938;2022-08-19T04:44:15;11.93;;;9.60;;
8293;SDS011;4185;41.506;24.938;2022-08-19T04:46:45;12.23;;;9.20;;
8293;SDS011;4185;41.506;24.938;2022-08-19T04:49:13;9.77;;;8.57;;
8293;SDS011;4185;41.506;24.938;2022-08-19T04:51:42;10.07;;;8.83;;
8293;SDS011;4185;41.506;24.938;2022-08-19T04:54:10;10.33;;;9.13;;
8293;SDS011;4185;41.506;24.938;2022-08-19T04:56:38;9.90;;;8.87;;
8293;SDS011;4185;41.506;24.938;2022-08-19T04:59:06;10.70;;;9.10;;
8293;SDS011;4185;41.506;24.938;2022-08-19T05:01:33;10.87;;;8.90;;
8293;SDS011;4185;41.506;24.938;2022-08-19T05:04:04;10.57;;;9.50;;
8293;SDS011;4185;41.506;24.938;2022-08-19T05:06:33;10.93;;;9.30;;
8293;SDS011;4185;41.506;24.938;2022-08-19T05:09:00;15.53;;;9.73;;
8293;SDS011;4185;41.506;24.938;2022-08-19T05:11:28;11.07;;;9.83;;
8293;SDS011;4185;41.506;24.938;2022-08-19T05:13:56;11.50;;;10.13;;
8293;SDS011;4185;41.506;24.938;2022-08-19T05:16:24;11.97;;;10.47;;
8293;SDS011;4185;41.506;24.938;2022-08-19T05:18:52;12.97;;;10.27;;
8293;SDS011;4185;41.506;24.938;2022-08-19T05:21:38;12.50;;;10.00;;
8293;SDS011;4185;41.506;24.938;2022-08-19T05:24:24;11.10;;;9.87;;
8293;SDS011;4185;41.506;24.938;2022-08-19T05:26:52;11.13;;;9.97;;
8293;SDS011;4185;41.506;24.938;2022-08-19T05:29:22;11.60;;;10.17;;
8293;SDS011;4185;41.506;24.938;2022-08-19T05:31:51;13.57;;;10.23;;
8293;SDS011;4185;41.506;24.938;2022-08-19T05:34:19;10.97;;;9.77;;
8293;SDS011;4185;41.506;24.938;2022-08-19T05:36:51;12.73;;;10.30;;
8293;SDS011;4185;41.506;24.938;2022-08-19T05:39:22;13.70;;;11.30;;
8293;SDS011;4185;41.506;24.938;2022-08-19T05:41:51;11.73;;;9.90;;
8293;SDS011;4185;41.506;24.938;2022-08-19T05:44:22;10.57;;;9.47;;
8293;SDS011;4185;41.506;24.938;2022-08-19T05:46:50;12.00;;;10.23;;
8293;SDS011;4185;41.506;24.938;2022-08-19T05:49:19;11.67;;;10.47;;
8293;SDS011;4185;41.506;24.938;2022-08-19T05:51:48;13.27;;;10.83;;
8293;SDS011;4185;41.506;24.938;2022-08-19T05:54:17;14.00;;;11.00;;
8293;SDS011;4185;41.506;24.938;2022-08-19T05:56:45;20.20;;;11.10;;
8293;SDS011;4185;41.506;24.938;2022-08-19T05:59:13;14.93;;;11.67;;
8293;SDS011;4185;41.506;24.938;2022-08-19T06:01:43;16.43;;;11.47;;
8293;SDS011;4185;41.506;24.938;2022-08-19T06:04:15;12.90;;;10.50;;
8293;SDS011;4185;41.506;24.938;2022-08-19T06:06:43;13.77;;;11.00;;
8293;SDS011;4185;41.506;24.938;2022-08-19T06:09:12;16.87;;;12.20;;
8293;SDS011;4185;41.506;24.938;2022-08-19T06:11:40;18.77;;;12.73;;
8293;SDS011;4185;41.506;24.938;2022-08-19T06:14:09;14.53;;;12.10;;
8293;SDS011;4185;41.506;24.938;2022-08-19T06:16:38;19.30;;;12.30;;
8293;SDS011;4185;41.506;24.938;2022-08-19T06:19:12;17.90;;;12.63;;
8293;SDS011;4185;41.506;24.938;2022-08-19T06:21:41;17.63;;;13.03;;
8293;SDS011;4185;41.506;24.938;2022-08-19T06:24:10;16.40;;;12.27;;
8293;SDS011;4185;41.506;24.938;2022-08-19T06:26:41;18.63;;;12.33;;
8293;SDS011;4185;41.506;24.938;2022-08-19T06:29:10;15.80;;;11.67;;
8293;SDS011;4185;41.506;24.938;2022-08-19T06:31:40;15.17;;;12.13;;
8293;SDS011;4185;41.506;24.938;2022-08-19T06:34:08;15.87;;;11.73;;
8293;SDS011;4185;41.506;24.938;2022-08-19T06:36:36;14.10;;;11.70;;
8293;SDS011;4185;41.506;24.938;2022-08-19T06:39:05;13.80;;;11.37;;
8293;SDS011;4185;41.506;24.938;2022-08-19T06:41:34;14.20;;;11.77;;
8293;SDS011;4185;41.506;24.938;2022-08-19T06:44:04;14.97;;;11.23;;
8293;SDS011;4185;41.506;24.938;2022-08-19T06:46:32;12.47;;;10.97;;
8293;SDS011;4185;41.506;24.938;2022-08-19T06:48:59;14.70;;;11.30;;
8293;SDS011;4185;41.506;24.938;2022-08-19T06:51:26;15.37;;;11.40;;
8293;SDS011;4185;41.506;24.938;2022-08-19T06:53:54;15.97;;;12.03;;
8293;SDS011;4185;41.506;24.938;2022-08-19T06:56:22;14.13;;;11.27;;
8293;SDS011;4185;41.506;24.938;2022-08-19T06:58:55;13.90;;;10.93;;
8293;SDS011;4185;41.506;24.938;2022-08-19T07:01:24;14.20;;;11.50;;
8293;SDS011;4185;41.506;24.938;2022-08-19T07:03:50;14.60;;;11.37;;
8293;SDS011;4185;41.506;24.938;2022-08-19T07:06:18;12.40;;;10.93;;
8293;SDS011;4185;41.506;24.938;2022-08-19T07:08:45;12.23;;;9.77;;
8293;SDS011;4185;41.506;24.938;2022-08-19T07:11:14;11.60;;;9.17;;
8293;SDS011;4185;41.506;24.938;2022-08-19T07:13:44;13.03;;;10.17;;
8293;SDS011;4185;41.506;24.938;2022-08-19T07:16:16;12.67;;;10.50;;
8293;SDS011;4185;41.506;24.938;2022-08-19T07:18:46;11.63;;;8.57;;
8293;SDS011;4185;41.506;24.938;2022-08-19T07:21:17;10.97;;;8.53;;
8293;SDS011;4185;41.506;24.938;2022-08-19T07:23:45;8.63;;;7.73;;
8293;SDS011;4185;41.506;24.938;2022-08-19T07:26:13;9.03;;;7.73;;
8293;SDS011;4185;41.506;24.938;2022-08-19T07:28:41;8.77;;;7.47;;
8293;SDS011;4185;41.506;24.938;2022-08-19T07:31:10;7.23;;;6.33;;
8293;SDS011;4185;41.506;24.938;2022-08-19T07:33:37;8.80;;;7.57;;
8293;SDS011;4185;41.506;24.938;2022-08-19T07:36:06;9.37;;;8.33;;
8293;SDS011;4185;41.506;24.938;2022-08-19T07:38:36;8.33;;;7.17;;
8293;SDS011;4185;41.506;24.938;2022-08-19T07:41:04;8.87;;;7.10;;
8293;SDS011;4185;41.506;24.938;2022-08-19T07:43:32;7.97;;;7.17;;
8293;SDS011;4185;41.506;24.938;2022-08-19T07:45:59;8.30;;;7.50;;
8293;SDS011;4185;41.506;24.938;2022-08-19T07:48:26;7.53;;;6.83;;
8293;SDS011;4185;41.506;24.938;2022-08-19T07:50:54;8.07;;;7.07;;
8293;SDS011;4185;41.506;24.938;2022-08-19T07:53:25;8.30;;;7.37;;
8293;SDS011;4185;41.506;24.938;2022-08-19T07:55:52;9.40;;;7.60;;
8293;SDS011;4185;41.506;24.938;2022-08-19T07:58:25;9.40;;;6.80;;
8293;SDS011;4185;41.506;24.938;2022-08-19T08:00:53;10.10;;;7.63;;
8293;SDS011;4185;41.506;24.938;2022-08-19T08:03:20;12.87;;;7.03;;
8293;SDS011;4185;41.506;24.938;2022-08-19T08:06:09;8.57;;;7.43;;
8293;SDS011;4185;41.506;24.938;2022-08-19T08:09:04;7.80;;;7.00;;
8293;SDS011;4185;41.506;24.938;2022-08-19T08:11:45;8.57;;;7.10;;
8293;SDS011;4185;41.506;24.938;2022-08-19T08:14:15;7.53;;;6.83;;
8293;SDS011;4185;41.506;24.938;2022-08-19T08:16:43;8.10;;;7.30;;
8293;SDS011;4185;41.506;24.938;2022-08-19T08:19:11;7.90;;;7.10;;
8293;SDS011;4185;41.506;24.938;2022-08-19T08:21:40;9.47;;;8.10;;
8293;SDS011;4185;41.506;24.938;2022-08-19T08:24:09;7.30;;;6.60;;
8293;SDS011;4185;41.506;24.938;2022-08-19T08:26:36;6.77;;;6.17;;
8293;SDS011;4185;41.506;24.938;2022-08-19T08:29:03;7.70;;;5.97;;
8293;SDS011;4185;41.506;24.938;2022-08-19T08:31:32;6.60;;;5.67;;
8293;SDS011;4185;41.506;24.938;2022-08-19T08:33:59;6.93;;;6.23;;
8293;SDS011;4185;41.506;24.938;2022-08-19T08:36:26;6.90;;;6.30;;
8293;SDS011;4185;41.506;24.938;2022-08-19T08:38:53;7.35;;;6.68;;
8293;SDS011;4185;41.506;24.938;2022-08-19T08:41:26;6.72;;;6.13;;
8293;SDS011;4185;41.506;24.938;2022-08-19T08:44:01;7.15;;;6.18;;
8293;SDS011;4185;41.506;24.938;2022-08-19T08:46:30;7.05;;;6.32;;
8293;SDS011;4185;41.506;24.938;2022-08-19T08:49:06;6.32;;;5.75;;
8293;SDS011;4185;41.506;24.938;2022-08-19T08:51:44;7.18;;;6.47;;
8293;SDS011;4185;41.506;24.938;2022-08-19T08:54:14;7.00;;;6.40;;
8293;SDS011;4185;41.506;24.938;2022-08-19T08:56:47;9.20;;;6.68;;
8293;SDS011;4185;41.506;24.938;2022-08-19T08:59:19;6.35;;;5.72;;
8293;SDS011;4185;41.506;24.938;2022-08-19T09:01:50;8.82;;;6.68;;
8293;SDS011;4185;41.506;24.938;2022-08-19T09:04:17;8.43;;;6.82;;
8293;SDS011;4185;41.506;24.938;2022-08-19T09:06:47;8.00;;;6.78;;
8293;SDS011;4185;41.506;24.938;2022-08-19T09:09:18;7.95;;;6.60;;
8293;SDS011;4185;41.506;24.938;2022-08-19T09:11:56;7.50;;;6.70;;
8293;SDS011;4185;41.506;24.938;2022-08-19T09:14:34;8.38;;;7.57;;
8293;SDS011;4185;41.506;24.938;2022-08-19T09:17:06;6.90;;;6.20;;
8293;SDS011;4185;41.506;24.938;2022-08-19T09:19:34;7.82;;;7.03;;
8293;SDS011;4185;41.506;24.938;2022-08-19T09:22:02;7.03;;;6.20;;
8293;SDS011;4185;41.506;24.938;2022-08-19T09:24:30;8.20;;;6.15;;
8293;SDS011;4185;41.506;24.938;2022-08-19T09:26:58;7.57;;;6.88;;
8293;SDS011;4185;41.506;24.938;2022-08-19T09:29:25;7.43;;;6.63;;
8293;SDS011;4185;41.506;24.938;2022-08-19T09:31:52;7.20;;;6.40;;
8293;SDS011;4185;41.506;24.938;2022-08-19T09:34:20;6.97;;;6.32;;
8293;SDS011;4185;41.506;24.938;2022-08-19T09:36:46;7.45;;;6.75;;
8293;SDS011;4185;41.506;24.938;2022-08-19T09:39:18;7.32;;;6.63;;
8293;SDS011;4185;41.506;24.938;2022-08-19T09:41:45;8.05;;;6.90;;
8293;SDS011;4185;41.506;24.938;2022-08-19T09:44:13;8.20;;;6.45;;
8293;SDS011;4185;41.506;24.938;2022-08-19T09:46:40;6.95;;;6.22;;
8293;SDS011;4185;41.506;24.938;2022-08-19T09:49:07;8.35;;;6.75;;
8293;SDS011;4185;41.506;24.938;2022-08-19T09:51:34;10.35;;;7.13;;
8293;SDS011;4185;41.506;24.938;2022-08-19T09:54:01;6.55;;;5.93;;
8293;SDS011;4185;41.506;24.938;2022-08-19T09:56:29;8.07;;;6.95;;
8293;SDS011;4185;41.506;24.938;2022-08-19T09:58:57;7.28;;;6.38;;
8293;SDS011;4185;41.506;24.938;2022-08-19T10:01:28;7.38;;;6.63;;
8293;SDS011;4185;41.506;24.938;2022-08-19T10:03:57;6.85;;;6.20;;
8293;SDS011;4185;41.506;24.938;2022-08-19T10:06:26;7.15;;;6.43;;
8293;SDS011;4185;41.506;24.938;2022-08-19T10:08:57;7.43;;;6.72;;
8293;SDS011;4185;41.506;24.938;2022-08-19T10:11:25;7.63;;;6.85;;
8293;SDS011;4185;41.506;24.938;2022-08-19T10:13:53;8.15;;;7.35;;
8293;SDS011;4185;41.506;24.938;2022-08-19T10:16:20;8.32;;;6.78;;
8293;SDS011;4185;41.506;24.938;2022-08-19T10:18:50;7.25;;;6.53;;
8293;SDS011;4185;41.506;24.938;2022-08-19T10:21:18;7.35;;;6.65;;
8293;SDS011;4185;41.506;24.938;2022-08-19T10:23:49;7.50;;;6.90;;
8293;SDS011;4185;41.506;24.938;2022-08-19T10:26:18;7.53;;;6.20;;
8293;SDS011;4185;41.506;24.938;2022-08-19T10:28:46;6.97;;;6.28;;
8293;SDS011;4185;41.506;24.938;2022-08-19T10:31:16;7.30;;;6.60;;
8293;SDS011;4185;41.506;24.938;2022-08-19T10:33:45;8.55;;;6.55;;
8293;SDS011;4185;41.506;24.938;2022-08-19T10:36:14;7.03;;;6.40;;
8293;SDS011;4185;41.506;24.938;2022-08-19T10:38:43;7.40;;;6.70;;
8293;SDS011;4185;41.506;24.938;2022-08-19T10:41:12;7.30;;;6.40;;
8293;SDS011;4185;41.506;24.938;2022-08-19T10:43:41;7.50;;;6.72;;
8293;SDS011;4185;41.506;24.938;2022-08-19T10:46:11;7.05;;;6.13;;
8293;SDS011;4185;41.506;24.938;2022-08-19T10:48:40;8.20;;;7.20;;
8293;SDS011;4185;41.506;24.938;2022-08-19T10:51:08;6.88;;;6.18;;
8293;SDS011;4185;41.506;24.938;2022-08-19T10:53:54;6.82;;;6.22;;
8293;SDS011;4185;41.506;24.938;2022-08-19T10:56:22;7.40;;;6.32;;
8293;SDS011;4185;41.506;24.938;2022-08-19T10:59:06;7.00;;;6.30;;
8293;SDS011;4185;41.506;24.938;2022-08-19T11:01:34;7.15;;;6.22;;
8293;SDS011;4185;41.506;24.938;2022-08-19T11:04:01;7.18;;;6.47;;
8293;SDS011;4185;41.506;24.938;2022-08-19T11:06:31;7.38;;;6.03;;
8293;SDS011;4185;41.506;24.938;2022-08-19T11:08:59;6.68;;;5.95;;
8293;SDS011;4185;41.506;24.938;2022-08-19T11:11:26;6.85;;;6.13;;
8293;SDS011;4185;41.506;24.938;2022-08-19T11:13:54;8.57;;;6.78;;
8293;SDS011;4185;41.506;24.938;2022-08-19T11:16:22;6.20;;;5.70;;
8293;SDS011;4185;41.506;24.938;2022-08-19T11:18:52;9.77;;;6.32;;
8293;SDS011;4185;41.506;24.938;2022-08-19T11:21:24;7.22;;;6.53;;
8293;SDS011;4185;41.506;24.938;2022-08-19T11:23:53;9.60;;;6.22;;
8293;SDS011;4185;41.506;24.938;2022-08-19T11:26:25;6.57;;;5.97;;
8293;SDS011;4185;41.506;24.938;2022-08-19T11:28:53;9.00;;;6.63;;
8293;SDS011;4185;41.506;24.938;2022-08-19T11:31:21;7.35;;;6.38;;
8293;SDS011;4185;41.506;24.938;2022-08-19T11:33:50;6.80;;;6.20;;
8293;SDS011;4185;41.506;24.938;2022-08-19T11:36:19;7.07;;;6.32;;
8293;SDS011;4185;41.506;24.938;2022-08-19T11:38:47;6.25;;;5.75;;
8293;SDS011;4185;41.506;24.938;2022-08-19T11:41:15;7.13;;;6.07;;
8293;SDS011;4185;41.506;24.938;2022-08-19T11:43:44;6.65;;;5.95;;
8293;SDS011;4185;41.506;24.938;2022-08-19T11:46:12;7.15;;;5.80;;
8293;SDS011;4185;41.506;24.938;2022-08-19T11:48:40;9.73;;;6.13;;
8293;SDS011;4185;41.506;24.938;2022-08-19T11:51:09;6.68;;;5.93;;
8293;SDS011;4185;41.506;24.938;2022-08-19T11:53:38;7.10;;;6.40;;
8293;SDS011;4185;41.506;24.938;2022-08-19T11:56:06;6.82;;;6.18;;
8293;SDS011;4185;41.506;24.938;2022-08-19T11:58:34;8.07;;;6.40;;
8293;SDS011;4185;41.506;24.938;2022-08-19T12:01:07;6.35;;;5.72;;
8293;SDS011;4185;41.506;24.938;2022-08-19T12:03:41;8.40;;;5.55;;
8293;SDS011;4185;41.506;24.938;2022-08-19T12:06:09;6.22;;;5.63;;
8293;SDS011;4185;41.506;24.938;2022-08-19T12:08:38;6.88;;;5.63;;
8293;SDS011;4185;41.506;24.938;2022-08-19T12:11:05;9.38;;;6.03;;
8293;SDS011;4185;41.506;24.938;2022-08-19T12:13:34;8.05;;;6.22;;
8293;SDS011;4185;41.506;24.938;2022-08-19T12:16:07;6.30;;;5.55;;
8293;SDS011;4185;41.506;24.938;2022-08-19T12:18:34;6.47;;;5.85;;
8293;SDS011;4185;41.506;24.938;2022-08-19T12:21:01;6.22;;;5.63;;
8293;SDS011;4185;41.506;24.938;2022-08-19T12:23:29;6.20;;;5.60;;
8293;SDS011;4185;41.506;24.938;2022-08-19T12:25:56;7.45;;;5.45;;
8293;SDS011;4185;41.506;24.938;2022-08-19T12:28:24;7.80;;;5.60;;
8293;SDS011;4185;41.506;24.938;2022-08-19T12:30:51;7.05;;;5.65;;
8293;SDS011;4185;41.506;24.938;2022-08-19T12:33:19;7.88;;;5.90;;
8293;SDS011;4185;41.506;24.938;2022-08-19T12:35:49;6.72;;;5.60;;
8293;SDS011;4185;41.506;24.938;2022-08-19T12:38:17;7.28;;;5.40;;
8293;SDS011;4185;41.506;24.938;2022-08-19T12:40:44;6.20;;;5.60;;
8293;SDS011;4185;41.506;24.938;2022-08-19T12:43:15;6.20;;;5.60;;
8293;SDS011;4185;41.506;24.938;2022-08-19T12:45:43;6.20;;;5.18;;
8293;SDS011;4185;41.506;24.938;2022-08-19T12:48:10;5.47;;;5.00;;
8293;SDS011;4185;41.506;24.938;2022-08-19T12:50:41;6.20;;;5.57;;
8293;SDS011;4185;41.506;24.938;2022-08-19T12:53:10;5.75;;;5.20;;
8293;SDS011;4185;41.506;24.938;2022-08-19T12:55:37;5.72;;;5.22;;
8293;SDS011;4185;41.506;24.938;2022-08-19T12:58:05;7.20;;;5.03;;
8293;SDS011;4185;41.506;24.938;2022-08-19T13:00:32;6.50;;;5.93;;
8293;SDS011;4185;41.506;24.938;2022-08-19T13:02:59;6.38;;;5.03;;
8293;SDS011;4185;41.506;24.938;2022-08-19T13:05:27;6.80;;;5.13;;
8293;SDS011;4185;41.506;24.938;2022-08-19T13:07:58;6.90;;;5.10;;
8293;SDS011;4185;41.506;24.938;2022-08-19T13:10:26;6.65;;;5.20;;
8293;SDS011;4185;41.506;24.938;2022-08-19T13:12:56;6.55;;;4.63;;
8293;SDS011;4185;41.506;24.938;2022-08-19T13:15:24;6.60;;;5.45;;
8293;SDS011;4185;41.506;24.938;2022-08-19T13:17:53;5.40;;;4.90;;
8293;SDS011;4185;41.506;24.938;2022-08-19T13:20:24;8.20;;;5.70;;
8293;SDS011;4185;41.506;24.938;2022-08-19T13:22:54;5.53;;;5.13;;
8293;SDS011;4185;41.506;24.938;2022-08-19T13:25:26;5.25;;;4.75;;
8293;SDS011;4185;41.506;24.938;2022-08-19T13:27:56;7.28;;;5.10;;
8293;SDS011;4185;41.506;24.938;2022-08-19T13:30:23;5.25;;;4.82;;
8293;SDS011;4185;41.506;24.938;2022-08-19T13:33:08;6.82;;;4.80;;
8293;SDS011;4185;41.506;24.938;2022-08-19T13:35:39;5.88;;;5.10;;
8293;SDS011;4185;41.506;24.938;2022-08-19T13:38:07;5.50;;;5.00;;
8293;SDS011;4185;41.506;24.938;2022-08-19T13:40:37;5.30;;;4.80;;
8293;SDS011;4185;41.506;24.938;2022-08-19T13:43:05;7.70;;;5.22;;
8293;SDS011;4185;41.506;24.938;2022-08-19T13:45:32;6.20;;;5.20;;
8293;SDS011;4185;41.506;24.938;2022-08-19T13:48:01;5.70;;;5.18;;
8293;SDS011;4185;41.506;24.938;2022-08-19T13:50:31;5.80;;;4.75;;
8293;SDS011;4185;41.506;24.938;2022-08-19T13:52:59;4.97;;;4.25;;
8293;SDS011;4185;41.506;24.938;2022-08-19T13:55:27;5.95;;;5.28;;
8293;SDS011;4185;41.506;24.938;2022-08-19T13:57:57;5.88;;;5.28;;
8293;SDS011;4185;41.506;24.938;2022-08-19T14:00:27;7.88;;;4.72;;
8293;SDS011;4185;41.506;24.938;2022-08-19T14:02:56;5.90;;;4.53;;
8293;SDS011;4185;41.506;24.938;2022-08-19T14:05:24;5.82;;;4.47;;
8293;SDS011;4185;41.506;24.938;2022-08-19T14:07:52;6.72;;;5.18;;
8293;SDS011;4185;41.506;24.938;2022-08-19T14:10:19;5.72;;;5.22;;
8293;SDS011;4185;41.506;24.938;2022-08-19T14:12:48;5.57;;;4.53;;
8293;SDS011;4185;41.506;24.938;2022-08-19T14:15:17;5.10;;;4.60;;
8293;SDS011;4185;41.506;24.938;2022-08-19T14:17:44;6.28;;;4.75;;
8293;SDS011;4185;41.506;24.938;2022-08-19T14:20:13;5.93;;;4.85;;
8293;SDS011;4185;41.506;24.938;2022-08-19T14:22:40;8.07;;;4.65;;
8293;SDS011;4185;41.506;24.938;2022-08-19T14:25:09;6.43;;;5.00;;
8293;SDS011;4185;41.506;24.938;2022-08-19T14:27:38;4.93;;;4.43;;
8293;SDS011;4185;41.506;24.938;2022-08-19T14:30:06;5.65;;;5.15;;
8293;SDS011;4185;41.506;24.938;2022-08-19T14:32:37;5.90;;;5.28;;
8293;SDS011;4185;41.506;24.938;2022-08-19T14:35:05;6.07;;;5.43;;
8293;SDS011;4185;41.506;24.938;2022-08-19T14:37:38;6.65;;;5.32;;
8293;SDS011;4185;41.506;24.938;2022-08-19T14:40:06;6.30;;;4.68;;
8293;SDS011;4185;41.506;24.938;2022-08-19T14:42:34;6.53;;;4.97;;
8293;SDS011;4185;41.506;24.938;2022-08-19T14:45:01;5.78;;;4.90;;
8293;SDS011;4185;41.506;24.938;2022-08-19T14:47:31;6.63;;;5.10;;
8293;SDS011;4185;41.506;24.938;2022-08-19T14:49:59;5.20;;;4.70;;
8293;SDS011;4185;41.506;24.938;2022-08-19T14:52:26;5.50;;;5.00;;
8293;SDS011;4185;41.506;24.938;2022-08-19T14:54:53;5.45;;;4.95;;
8293;SDS011;4185;41.506;24.938;2022-08-19T14:57:20;4.57;;;4.18;;
8293;SDS011;4185;41.506;24.938;2022-08-19T14:59:48;7.47;;;4.70;;
8293;SDS011;4185;41.506;24.938;2022-08-19T15:02:15;5.60;;;4.93;;
8293;SDS011;4185;41.506;24.938;2022-08-19T15:04:42;5.20;;;4.70;;
8293;SDS011;4185;41.506;24.938;2022-08-19T15:07:11;6.30;;;5.15;;